This is the latest recevied weather packets stored in our database for station/object EB1BWO-10. If no packets are shown the sender has not sent any weather packets the latest 10 day(s).
| Time | Temp. | Humidity | Pressure | Rain* | Wind** | Luminosity | Snow |
|---|---|---|---|---|---|---|---|
| 1777650167 | 15° C | 89% | 952.6 hPa | - | - | - | - |
| 1777649267 | 15° C | 88% | 952.8 hPa | - | - | - | - |
| 1777648367 | 16.11° C | 85% | 952.8 hPa | - | - | - | - |
| 1777647467 | 15.56° C | 86% | 953 hPa | - | - | - | - |
| 1777646567 | 15.56° C | 87% | 953.1 hPa | - | - | - | - |
| 1777645667 | 15° C | 86% | 953.1 hPa | - | - | - | - |
| 1777644767 | 15.56° C | 84% | 953.3 hPa | - | - | - | - |
| 1777643867 | 15.56° C | 85% | 953.2 hPa | - | - | - | - |
| 1777642966 | 16.67° C | 80% | 953.2 hPa | - | - | - | - |
| 1777642066 | 16.67° C | 80% | 952 hPa | - | - | - | - |
| 1777641166 | 18.33° C | 77% | 953.1 hPa | - | - | - | - |
| 1777639367 | 18.33° C | 76% | 953.2 hPa | - | - | - | - |
| 1777638467 | 17.78° C | 80% | 953.2 hPa | - | - | - | - |
| 1777637567 | 17.78° C | 80% | 953.4 hPa | - | - | - | - |
| 1777636667 | 17.22° C | 81% | 953.4 hPa | - | - | - | - |
| 1777635767 | 18.33° C | 75% | 953.6 hPa | - | - | - | - |
| 1777634867 | 15.56° C | 82% | 952.4 hPa | - | - | - | - |
| 1777633967 | 16.11° C | 80% | 953.7 hPa | - | - | - | - |
| 1777633067 | 17.78° C | 77% | 953.8 hPa | - | - | - | - |
| 1777632167 | 17.22° C | 79% | 953.7 hPa | - | - | - | - |
| 1777631267 | 17.78° C | 77% | 953.8 hPa | - | - | - | - |
| 1777630367 | 17.22° C | 78% | 953.9 hPa | - | - | - | - |
| 1777629466 | 17.22° C | 79% | 953.9 hPa | - | - | - | - |
| 1777628566 | 17.22° C | 76% | 953.9 hPa | - | - | - | - |
| 1777627666 | 16.11° C | 79% | 954 hPa | - | - | - | - |
* Rain since midnight (hover to see other rain measurements)
** Current wind speed in m/s (hover to see current wind gust speed)